createdAt,value
2018-12-23T00:01:22.979Z,85.21
2018-12-23T00:03:50.400Z,85.08
2018-12-23T00:06:17.835Z,84.76
2018-12-23T00:08:45.316Z,84.67
2018-12-23T00:11:12.742Z,84.54
2018-12-23T00:13:40.155Z,84.38
2018-12-23T00:16:07.583Z,84.33
2018-12-23T00:18:35.831Z,84.18
2018-12-23T00:21:02.787Z,84.25
2018-12-23T00:23:30.534Z,84.44
2018-12-23T00:25:58.316Z,84.18
2018-12-23T00:28:26.878Z,83.98
2018-12-23T00:30:54.271Z,83.91
2018-12-23T00:33:21.734Z,83.77
2018-12-23T00:35:49.350Z,83.78
2018-12-23T00:38:16.818Z,83.69
2018-12-23T00:40:44.295Z,83.72
2018-12-23T00:43:12.666Z,83.64
2018-12-23T00:45:40.122Z,83.72
2018-12-23T00:48:07.538Z,83.92
2018-12-23T00:50:34.946Z,83.75
2018-12-23T00:53:02.368Z,83.39
2018-12-23T00:55:29.759Z,83.28
2018-12-23T00:57:57.169Z,83.39
2018-12-23T01:00:24.568Z,83.65
2018-12-23T01:02:52.027Z,83.23
2018-12-23T01:05:19.073Z,83.09
2018-12-23T01:07:46.532Z,82.69
2018-12-23T01:10:14.109Z,82.61
2018-12-23T01:12:41.089Z,82.51
2018-12-23T01:15:08.038Z,82.28
2018-12-23T01:17:35.440Z,82.18
2018-12-23T01:20:02.876Z,82.42
2018-12-23T01:22:30.418Z,82.42
2018-12-23T01:24:57.869Z,82.13
2018-12-23T01:27:24.806Z,82.65
2018-12-23T01:29:51.750Z,83.16
2018-12-23T01:32:19.152Z,83.33
2018-12-23T01:34:46.108Z,83.27
2018-12-23T01:37:14.282Z,83.26
2018-12-23T01:39:41.760Z,83.38
2018-12-23T01:42:08.703Z,83.37
2018-12-23T01:44:36.115Z,83.34
2018-12-23T01:47:03.521Z,83.29
2018-12-23T01:49:30.479Z,83.57
2018-12-23T01:51:57.880Z,83.65
2018-12-23T01:54:25.309Z,83.76
2018-12-23T01:56:52.231Z,83.66
2018-12-23T01:59:19.639Z,83.47
2018-12-23T02:01:47.056Z,83.00
2018-12-23T02:04:15.657Z,83.13
2018-12-23T02:06:43.044Z,83.13
2018-12-23T02:09:10.509Z,83.30
2018-12-23T02:11:37.879Z,83.44
2018-12-23T02:14:05.294Z,83.48
2018-12-23T02:16:32.723Z,83.44
2018-12-23T02:19:00.176Z,83.58
2018-12-23T02:21:27.587Z,83.61
2018-12-23T02:23:54.530Z,83.78
2018-12-23T02:26:21.937Z,83.89
2018-12-23T02:28:49.331Z,84.09
2018-12-23T02:31:16.891Z,84.17
2018-12-23T02:33:44.304Z,84.20
2018-12-23T02:36:11.726Z,84.32
2018-12-23T02:38:39.248Z,84.45
2018-12-23T02:41:07.161Z,84.48
2018-12-23T02:43:34.777Z,84.35
2018-12-23T02:46:01.739Z,84.40
2018-12-23T02:48:29.311Z,84.55
2018-12-23T02:50:56.829Z,84.57
2018-12-23T02:53:24.252Z,84.45
2018-12-23T02:55:51.217Z,84.57
2018-12-23T02:58:18.655Z,84.39
2018-12-23T03:00:46.074Z,84.14
2018-12-23T03:03:13.502Z,83.82
2018-12-23T03:05:40.923Z,83.79
2018-12-23T03:08:07.880Z,83.91
2018-12-23T03:10:34.832Z,83.92
2018-12-23T03:13:02.252Z,83.80
2018-12-23T03:15:29.661Z,83.81
2018-12-23T03:17:57.263Z,83.85
2018-12-23T03:20:24.687Z,84.01
2018-12-23T03:22:51.634Z,84.01
2018-12-23T03:25:19.051Z,84.02
2018-12-23T03:27:46.012Z,84.14
2018-12-23T03:30:12.974Z,84.34
2018-12-23T03:32:40.098Z,84.46
2018-12-23T03:35:07.706Z,84.65
2018-12-23T03:37:34.652Z,84.46
2018-12-23T03:40:01.606Z,84.49
2018-12-23T03:42:28.560Z,84.47
2018-12-23T03:44:55.523Z,84.43
2018-12-23T03:47:22.942Z,84.31
2018-12-23T03:49:49.881Z,84.38
2018-12-23T03:52:17.341Z,84.18
2018-12-23T03:54:44.743Z,84.15
2018-12-23T03:57:12.142Z,84.23
2018-12-23T03:59:39.101Z,84.33
2018-12-23T04:02:06.500Z,84.51
2018-12-23T04:04:33.455Z,84.35
2018-12-23T04:07:00.625Z,84.24
2018-12-23T04:09:27.598Z,84.23
2018-12-23T04:11:54.555Z,84.21
2018-12-23T04:14:21.528Z,84.10
2018-12-23T04:16:48.577Z,84.16
2018-12-23T04:19:15.543Z,84.03
2018-12-23T04:21:42.505Z,83.93
2018-12-23T04:24:09.475Z,83.83
2018-12-23T04:26:36.878Z,83.64
2018-12-23T04:29:04.271Z,83.66
2018-12-23T04:31:31.691Z,83.64
2018-12-23T04:33:59.092Z,83.40
2018-12-23T04:36:34.006Z,83.63
2018-12-23T04:38:54.174Z,83.96
2018-12-23T04:41:21.569Z,84.06
2018-12-23T04:43:49.732Z,84.00
2018-12-23T04:46:16.689Z,83.83
2018-12-23T04:48:43.633Z,83.85
2018-12-23T04:51:10.583Z,83.99
2018-12-23T04:53:39.879Z,83.87
2018-12-23T04:56:06.881Z,83.89
2018-12-23T04:58:33.854Z,84.04
2018-12-23T05:01:00.870Z,84.13
2018-12-23T05:03:27.870Z,84.23
2018-12-23T05:05:55.279Z,84.25
2018-12-23T05:08:22.298Z,84.03
2018-12-23T05:10:49.859Z,83.72
2018-12-23T05:13:17.461Z,83.71
2018-12-23T05:15:44.672Z,83.75
2018-12-23T05:18:12.093Z,83.79
2018-12-23T05:20:39.130Z,84.03
2018-12-23T05:23:06.547Z,84.51
2018-12-23T05:25:33.495Z,84.94
2018-12-23T05:28:00.945Z,84.97
2018-12-23T05:30:27.945Z,84.92
2018-12-23T05:32:54.910Z,85.02
2018-12-23T05:35:22.374Z,84.90
2018-12-23T05:37:49.341Z,84.79
2018-12-23T05:40:16.282Z,84.71
2018-12-23T05:42:43.223Z,84.51
2018-12-23T05:45:10.166Z,84.46
2018-12-23T05:47:37.120Z,84.22
2018-12-23T05:50:04.070Z,83.99
2018-12-23T05:52:31.025Z,83.97
2018-12-23T05:54:58.074Z,83.81
2018-12-23T05:57:25.047Z,83.42
2018-12-23T05:59:51.990Z,83.24
2018-12-23T06:02:19.399Z,83.11
2018-12-23T06:04:46.470Z,82.96
2018-12-23T06:07:13.881Z,82.80
2018-12-23T06:09:41.353Z,82.80
2018-12-23T06:12:08.800Z,82.70
2018-12-23T06:14:36.195Z,82.16
2018-12-23T06:17:03.593Z,81.65
2018-12-23T06:19:30.545Z,81.50
2018-12-23T06:21:58.151Z,81.73
2018-12-23T06:24:25.132Z,81.61
2018-12-23T06:26:52.523Z,81.52
2018-12-23T06:29:19.635Z,81.53
2018-12-23T06:31:46.584Z,81.68
2018-12-23T06:34:14.281Z,81.69
2018-12-23T06:36:41.715Z,81.53
2018-12-23T06:39:09.194Z,81.53
2018-12-23T06:41:36.587Z,81.53
2018-12-23T06:44:04.012Z,81.63
2018-12-23T06:46:31.408Z,81.47
2018-12-23T06:48:58.938Z,81.39
2018-12-23T06:51:25.892Z,81.31
2018-12-23T06:53:52.994Z,81.71
2018-12-23T06:56:20.423Z,81.75
2018-12-23T06:58:47.844Z,82.06
2018-12-23T07:01:15.375Z,82.23
2018-12-23T07:03:42.323Z,82.23
2018-12-23T07:06:09.751Z,82.32
2018-12-23T07:08:37.159Z,82.33
2018-12-23T07:11:04.670Z,82.47
2018-12-23T07:13:32.095Z,82.55
2018-12-23T07:15:59.495Z,82.42
2018-12-23T07:18:27.039Z,82.72
2018-12-23T07:20:55.356Z,82.87
2018-12-23T07:23:21.908Z,83.01
2018-12-23T07:25:49.306Z,82.77
2018-12-23T07:28:17.095Z,82.71
2018-12-23T07:30:44.518Z,82.94
2018-12-23T07:33:12.505Z,82.93
2018-12-23T07:35:39.921Z,82.87
2018-12-23T07:38:07.338Z,82.94
2018-12-23T07:40:34.753Z,82.84
2018-12-23T07:43:02.155Z,82.30
2018-12-23T07:45:29.578Z,82.19
2018-12-23T07:47:56.748Z,82.17
2018-12-23T07:50:24.270Z,81.99
2018-12-23T07:52:51.908Z,82.36
2018-12-23T07:55:19.316Z,82.30
2018-12-23T07:57:46.739Z,82.26
2018-12-23T08:00:14.153Z,82.63
2018-12-23T08:02:41.564Z,82.61
2018-12-23T08:05:08.964Z,82.91
2018-12-23T08:07:36.500Z,83.06
2018-12-23T08:10:03.217Z,83.08
2018-12-23T08:12:30.178Z,83.17
2018-12-23T08:14:57.121Z,83.20
2018-12-23T08:17:24.301Z,82.80
2018-12-23T08:19:51.240Z,82.27
2018-12-23T08:22:19.792Z,82.17
2018-12-23T08:24:47.228Z,82.21
2018-12-23T08:27:14.654Z,82.23
2018-12-23T08:29:41.704Z,81.95
2018-12-23T08:32:08.655Z,81.89
2018-12-23T08:34:36.067Z,81.82
2018-12-23T08:37:03.514Z,81.48
2018-12-23T08:39:31.483Z,81.29
2018-12-23T08:41:58.450Z,81.05
2018-12-23T08:44:25.858Z,80.67
2018-12-23T08:46:53.260Z,80.25
2018-12-23T08:49:20.674Z,80.20
2018-12-23T08:51:48.075Z,79.92
2018-12-23T08:54:15.051Z,79.07
2018-12-23T08:56:42.007Z,78.93
2018-12-23T08:59:08.951Z,78.43
2018-12-23T09:01:36.353Z,78.60
2018-12-23T09:04:03.302Z,79.00
2018-12-23T09:06:30.301Z,78.87
2018-12-23T09:08:57.280Z,78.46
2018-12-23T09:11:24.712Z,78.65
2018-12-23T09:13:52.137Z,78.14
2018-12-23T09:16:20.134Z,77.64
2018-12-23T09:18:47.917Z,77.75
2018-12-23T09:21:15.316Z,77.93
2018-12-23T09:23:42.274Z,77.96
2018-12-23T09:26:09.232Z,77.80
2018-12-23T09:28:36.221Z,77.57
2018-12-23T09:31:03.195Z,77.57
2018-12-23T09:33:30.148Z,77.44
2018-12-23T09:35:57.551Z,77.82
2018-12-23T09:38:24.960Z,77.61
2018-12-23T09:40:51.913Z,77.64
2018-12-23T09:43:18.913Z,77.92
2018-12-23T09:45:46.319Z,77.64
2018-12-23T09:48:13.794Z,76.99
2018-12-23T09:50:40.788Z,77.06
2018-12-23T09:53:07.860Z,76.95
2018-12-23T09:55:35.266Z,77.18
2018-12-23T09:58:02.257Z,76.98
2018-12-23T10:00:29.230Z,76.90
2018-12-23T10:02:56.206Z,76.41
2018-12-23T10:05:23.608Z,75.99
2018-12-23T10:07:50.802Z,75.42
2018-12-23T10:10:18.311Z,75.02
2018-12-23T10:12:45.289Z,74.74
2018-12-23T10:15:12.227Z,74.78
2018-12-23T10:17:39.645Z,74.53
2018-12-23T10:20:07.344Z,74.01
2018-12-23T10:22:34.391Z,73.39
2018-12-23T10:25:01.335Z,72.78
2018-12-23T10:27:28.749Z,72.02
2018-12-23T10:29:56.430Z,71.67
2018-12-23T10:32:23.391Z,71.75
2018-12-23T10:34:50.391Z,72.32
2018-12-23T10:37:17.361Z,72.54
2018-12-23T10:39:44.306Z,72.53
2018-12-23T10:42:11.283Z,72.84
2018-12-23T10:44:39.373Z,73.10
2018-12-23T10:47:06.879Z,72.73
2018-12-23T10:49:33.843Z,72.86
2018-12-23T10:52:02.003Z,73.71
2018-12-23T10:54:29.574Z,74.11
2018-12-23T10:56:57.018Z,74.19
2018-12-23T10:59:23.996Z,74.06
2018-12-23T11:01:51.412Z,74.17
2018-12-23T11:04:18.978Z,74.17
2018-12-23T11:06:45.988Z,74.25
2018-12-23T11:09:13.393Z,73.86
2018-12-23T11:11:40.804Z,72.94
2018-12-23T11:14:08.210Z,72.05
2018-12-23T11:16:35.631Z,71.25
2018-12-23T11:19:03.032Z,70.81
2018-12-23T11:21:30.480Z,70.52
2018-12-23T11:23:57.923Z,69.86
2018-12-23T11:26:26.078Z,69.53
2018-12-23T11:28:53.471Z,69.41
2018-12-23T11:31:20.916Z,69.95
2018-12-23T11:33:48.445Z,69.67
2018-12-23T11:36:15.876Z,69.90
2018-12-23T11:38:43.311Z,69.56
2018-12-23T11:41:10.714Z,69.19
2018-12-23T11:43:38.165Z,69.30
2018-12-23T11:46:05.582Z,69.89
2018-12-23T11:48:33.003Z,69.75
2018-12-23T11:51:00.455Z,69.85
2018-12-23T11:53:27.883Z,70.17
2018-12-23T11:55:55.357Z,70.35
2018-12-23T11:58:22.768Z,69.97
2018-12-23T12:00:50.208Z,69.48
2018-12-23T12:03:17.630Z,69.63
2018-12-23T12:05:45.469Z,69.12
2018-12-23T12:08:12.984Z,69.34
2018-12-23T12:10:41.113Z,69.97
2018-12-23T12:13:08.570Z,70.83
2018-12-23T12:15:35.983Z,70.86
2018-12-23T12:18:03.419Z,70.90
2018-12-23T12:20:30.835Z,71.19
2018-12-23T12:22:58.305Z,71.22
2018-12-23T12:25:25.804Z,70.85
2018-12-23T12:27:53.240Z,70.87
2018-12-23T12:30:20.708Z,70.80
2018-12-23T12:32:48.125Z,70.26
2018-12-23T12:35:15.593Z,70.02
2018-12-23T12:37:43.049Z,70.62
2018-12-23T12:40:10.508Z,71.38
2018-12-23T12:42:38.703Z,70.94
2018-12-23T12:45:06.111Z,70.50
2018-12-23T12:47:33.537Z,70.05
2018-12-23T12:50:01.066Z,69.95
2018-12-23T12:52:28.486Z,70.05
2018-12-23T12:54:57.767Z,70.27
2018-12-23T12:57:25.469Z,70.37
2018-12-23T12:59:52.444Z,70.09
2018-12-23T13:02:19.464Z,70.02
2018-12-23T13:04:47.071Z,70.15
2018-12-23T13:07:14.490Z,70.42
2018-12-23T13:09:41.959Z,70.24
2018-12-23T13:12:09.672Z,70.34
2018-12-23T13:14:37.114Z,70.24
2018-12-23T13:17:04.523Z,69.90
2018-12-23T13:19:31.968Z,69.98
2018-12-23T13:21:59.423Z,69.87
2018-12-23T13:24:27.676Z,70.50
2018-12-23T13:26:55.914Z,70.46
2018-12-23T13:29:23.429Z,70.27
2018-12-23T13:31:50.890Z,70.43
2018-12-23T13:34:19.092Z,70.96
2018-12-23T13:36:46.597Z,70.65
2018-12-23T13:39:13.997Z,70.57
2018-12-23T13:41:45.008Z,70.42
2018-12-23T13:44:29.085Z,70.53
2018-12-23T13:47:16.400Z,70.96
2018-12-23T13:49:53.004Z,71.30
2018-12-23T13:55:30.142Z,71.52
2018-12-23T13:58:10.266Z,71.92
2018-12-23T14:03:40.098Z,72.05
2018-12-23T14:09:17.276Z,70.57
2018-12-23T14:11:40.189Z,71.11
2018-12-23T14:14:07.693Z,71.27
2018-12-23T14:16:35.143Z,71.16
2018-12-23T14:19:02.623Z,71.00
2018-12-23T14:21:30.054Z,70.99
2018-12-23T14:23:57.501Z,71.23
2018-12-23T14:26:24.927Z,71.73
2018-12-23T14:28:52.365Z,71.91
2018-12-23T14:31:19.767Z,71.68
2018-12-23T14:33:47.239Z,71.91
2018-12-23T14:36:14.682Z,72.09
2018-12-23T14:38:42.082Z,72.29
2018-12-23T14:41:09.483Z,72.15
2018-12-23T14:43:37.708Z,72.09
2018-12-23T14:46:05.128Z,72.04
2018-12-23T14:48:32.515Z,72.09
2018-12-23T14:50:59.996Z,72.04
2018-12-23T14:53:27.412Z,71.91
2018-12-23T14:55:54.808Z,71.95
2018-12-23T14:58:22.204Z,72.03
2018-12-23T15:00:49.673Z,72.04
2018-12-23T15:03:17.881Z,71.92
2018-12-23T15:05:45.274Z,71.68
2018-12-23T15:08:12.682Z,71.43
2018-12-23T15:10:40.098Z,71.73
2018-12-23T15:13:07.586Z,72.00
2018-12-23T15:15:35.140Z,72.08
2018-12-23T15:18:02.687Z,72.24
2018-12-23T15:20:30.272Z,72.63
2018-12-23T15:22:58.586Z,72.75
2018-12-23T15:25:25.985Z,73.02
2018-12-23T15:27:53.467Z,72.92
2018-12-23T15:30:20.886Z,72.90
2018-12-23T15:32:48.470Z,72.74
2018-12-23T15:35:15.908Z,73.17
2018-12-23T15:37:44.194Z,72.98
2018-12-23T15:40:12.471Z,72.80
2018-12-23T15:42:40.723Z,72.72
2018-12-23T15:45:09.265Z,72.54
2018-12-23T15:47:36.670Z,72.59
2018-12-23T15:50:04.128Z,73.00
2018-12-23T15:52:31.768Z,73.50
2018-12-23T15:54:59.169Z,73.48
2018-12-23T15:57:26.585Z,73.74
2018-12-23T15:59:54.151Z,73.68
2018-12-23T16:02:21.645Z,73.37
2018-12-23T16:04:49.097Z,73.18
2018-12-23T16:07:16.527Z,73.09
2018-12-23T16:09:50.970Z,73.50
2018-12-23T16:12:12.677Z,73.06
2018-12-23T16:14:40.211Z,73.04
2018-12-23T16:17:07.704Z,73.50
2018-12-23T16:19:35.104Z,73.87
2018-12-23T16:22:02.523Z,74.04
2018-12-23T16:24:29.921Z,74.05
2018-12-23T16:26:58.561Z,73.90
2018-12-23T16:29:25.955Z,73.69
2018-12-23T16:31:53.399Z,74.03
2018-12-23T16:34:20.820Z,74.22
2018-12-23T16:36:48.262Z,74.85
2018-12-23T16:39:15.682Z,74.71
2018-12-23T16:41:43.155Z,74.64
2018-12-23T16:44:11.023Z,74.05
2018-12-23T16:46:38.553Z,73.76
2018-12-23T16:49:05.966Z,73.63
2018-12-23T16:51:33.396Z,73.56
2018-12-23T16:54:00.879Z,73.17
2018-12-23T16:56:29.234Z,73.14
2018-12-23T16:58:56.673Z,73.38
2018-12-23T17:01:24.102Z,73.21
2018-12-23T17:03:51.533Z,73.18
2018-12-23T17:06:18.944Z,72.98
2018-12-23T17:08:46.366Z,73.08
2018-12-23T17:11:14.127Z,72.71
2018-12-23T17:16:08.637Z,71.77
2018-12-23T17:18:36.122Z,71.27
2018-12-23T17:21:03.578Z,70.50
2018-12-23T17:23:31.020Z,70.34
2018-12-23T17:25:58.429Z,69.90
2018-12-23T17:28:28.125Z,69.73
2018-12-23T17:30:53.470Z,69.08
2018-12-23T17:33:20.897Z,68.63
2018-12-23T17:35:48.292Z,69.39
2018-12-23T17:38:15.715Z,68.51
2018-12-23T17:40:43.174Z,67.91
2018-12-23T17:43:10.657Z,67.64
2018-12-23T17:45:38.106Z,67.78
2018-12-23T17:48:05.612Z,67.69
2018-12-23T17:50:33.063Z,67.74
2018-12-23T17:53:00.715Z,68.27
2018-12-23T17:55:28.112Z,69.15
2018-12-23T17:57:55.570Z,70.38
2018-12-23T18:00:22.968Z,71.11
2018-12-23T18:02:50.408Z,71.55
2018-12-23T18:05:17.807Z,71.66
2018-12-23T18:07:45.237Z,71.79
2018-12-23T18:10:12.718Z,71.88
2018-12-23T18:12:40.153Z,72.52
2018-12-23T18:15:07.715Z,72.72
2018-12-23T18:17:35.146Z,72.77
2018-12-23T18:20:02.550Z,73.56
2018-12-23T18:22:29.965Z,73.82
2018-12-23T18:24:57.393Z,74.31
2018-12-23T18:27:24.789Z,75.18
2018-12-23T18:29:52.201Z,75.46
2018-12-23T18:32:19.634Z,75.70
2018-12-23T18:34:47.346Z,75.96
2018-12-23T18:37:15.059Z,75.80
2018-12-23T18:39:42.594Z,76.00
2018-12-23T18:42:10.029Z,75.95
2018-12-23T18:44:37.682Z,75.61
2018-12-23T18:47:05.293Z,75.97
2018-12-23T18:49:32.691Z,76.60
2018-12-23T18:52:00.317Z,76.55
2018-12-23T18:54:27.736Z,77.11
2018-12-23T18:56:55.566Z,76.91
2018-12-23T18:59:23.007Z,77.30
2018-12-23T19:01:50.424Z,76.86
2018-12-23T19:04:17.835Z,77.24
2018-12-23T19:06:45.419Z,76.98
2018-12-23T19:09:12.839Z,76.68
2018-12-23T19:11:49.737Z,76.85
2018-12-23T19:14:30.653Z,77.00
2018-12-23T19:20:00.300Z,78.52
2018-12-23T19:22:52.282Z,77.94
2018-12-23T19:25:33.394Z,78.21
2018-12-23T19:28:13.344Z,78.75
2018-12-23T19:30:43.755Z,78.46
2018-12-23T19:33:30.642Z,78.38
2018-12-23T19:39:02.933Z,76.73
2018-12-23T19:42:04.715Z,76.78
2018-12-23T19:44:38.709Z,77.31
2018-12-23T19:50:28.534Z,77.65
2018-12-23T19:53:02.541Z,77.32
2018-12-23T19:55:36.487Z,77.58
2018-12-23T20:01:10.805Z,77.33
2018-12-23T20:03:38.247Z,77.55
2018-12-23T20:06:12.072Z,77.65
2018-12-23T20:08:56.911Z,77.76
2018-12-23T20:14:42.747Z,77.63
2018-12-23T20:17:24.813Z,77.81
2018-12-23T20:20:07.956Z,78.02
2018-12-23T20:22:40.954Z,78.03
2018-12-23T20:25:31.007Z,77.88
2018-12-23T20:33:48.483Z,77.90
2018-12-23T20:36:22.649Z,78.08
2018-12-23T20:38:56.827Z,78.55
2018-12-23T20:41:46.911Z,79.03
2018-12-23T20:47:12.027Z,78.66
2018-12-23T20:52:41.429Z,78.71
2018-12-23T20:58:40.871Z,78.63
2018-12-23T21:01:14.380Z,78.56
2018-12-23T21:03:59.611Z,78.84
2018-12-23T21:09:33.079Z,79.51
2018-12-23T21:12:23.118Z,79.74
2018-12-23T21:17:57.300Z,79.23
2018-12-23T21:20:32.459Z,79.59
2018-12-23T21:26:09.710Z,78.99
2018-12-23T21:28:55.603Z,78.93
2018-12-23T21:31:26.678Z,79.27
2018-12-23T21:33:55.540Z,79.96
2018-12-23T21:36:31.618Z,80.21
2018-12-23T21:41:59.751Z,80.56
2018-12-23T21:44:45.882Z,79.95
2018-12-23T21:47:23.333Z,79.98
2018-12-23T21:49:53.377Z,80.04
2018-12-23T21:52:28.176Z,79.41
2018-12-23T21:57:57.496Z,79.17
2018-12-23T22:00:41.071Z,79.55
2018-12-23T22:06:09.776Z,79.91
2018-12-23T22:08:44.777Z,79.44
2018-12-23T22:11:33.134Z,79.41
2018-12-23T22:13:56.019Z,79.51
2018-12-23T22:16:23.448Z,79.57
2018-12-23T22:18:50.936Z,80.11
2018-12-23T22:21:18.338Z,80.52
2018-12-23T22:23:45.733Z,80.80
2018-12-23T22:26:13.181Z,80.87
2018-12-23T22:28:40.585Z,81.10
2018-12-23T22:31:08.010Z,81.17
2018-12-23T22:33:35.424Z,81.47
2018-12-23T22:36:02.832Z,81.63
2018-12-23T22:38:30.232Z,81.57
2018-12-23T22:40:57.652Z,81.62
2018-12-23T22:43:25.055Z,81.37
2018-12-23T22:45:52.479Z,81.39
2018-12-23T22:48:19.967Z,81.23
2018-12-23T22:50:47.371Z,81.57
2018-12-23T22:53:14.799Z,81.49
2018-12-23T22:55:42.242Z,81.31
2018-12-23T22:58:10.230Z,81.40
2018-12-23T23:00:37.749Z,81.16
2018-12-23T23:03:09.306Z,81.21
2018-12-23T23:05:32.622Z,81.52
2018-12-23T23:08:01.891Z,81.39
2018-12-23T23:10:27.656Z,81.25
2018-12-23T23:12:55.047Z,81.32
2018-12-23T23:15:22.473Z,81.30
2018-12-23T23:17:49.872Z,81.11
2018-12-23T23:20:17.275Z,81.10
2018-12-23T23:22:44.818Z,81.42
2018-12-23T23:25:12.211Z,81.54
2018-12-23T23:27:39.638Z,81.52
2018-12-23T23:30:07.059Z,81.20
2018-12-23T23:32:34.460Z,81.16
2018-12-23T23:35:01.855Z,81.37
2018-12-23T23:37:29.327Z,81.52
2018-12-23T23:39:56.747Z,81.38
2018-12-23T23:42:24.162Z,81.18
2018-12-23T23:44:51.551Z,81.16
2018-12-23T23:47:19.622Z,80.82
2018-12-23T23:49:47.035Z,80.56
2018-12-23T23:52:14.485Z,80.72
2018-12-23T23:54:41.964Z,80.88
2018-12-23T23:57:09.407Z,80.71
2018-12-23T23:59:36.802Z,80.86
